Time;durP1;ratioP1;P1;durP2;ratioP2;P2;SDS_P1;SDS_P2;PMS_P1;PMS_P2;Temp;Humidity;BMP_temperature;BMP_pressure;BME280_temperature;BME280_humidity;BME280_pressure;Samples;Min_cycle;Max_cycle;Signal;HPM_P1;HPM_P2
2022/04/30 00:00:40;;;;;;;5.28;3.40;;;16.80;79.70;;;;;;5116424;28;20400;-63
2022/04/30 00:03:06;;;;;;;6.72;3.53;;;16.90;77.10;;;;;;5097714;28;20043;-66
2022/04/30 00:05:35;;;;;;;7.40;3.58;;;16.70;79.70;;;;;;5065024;27;20051;-66
2022/04/30 00:08:01;;;;;;;6.55;3.88;;;16.60;79.80;;;;;;5083838;27;20118;-66
2022/04/30 00:10:27;;;;;;;8.50;3.90;;;16.90;80.10;;;;;;5136625;27;20377;-66
2022/04/30 00:12:53;;;;;;;6.43;3.75;;;16.80;77.80;;;;;;5101145;27;20039;-66
2022/04/30 00:15:20;;;;;;;8.20;3.72;;;16.90;77.20;;;;;;5083765;27;20108;-65
2022/04/30 00:17:46;;;;;;;9.30;4.70;;;;;;;;;;5098771;27;20038;-65
2022/04/30 00:20:12;;;;;;;6.45;3.80;;;16.70;79.90;;;;;;5128734;27;20086;-66
2022/04/30 00:22:38;;;;;;;6.45;4.22;;;16.90;79.80;;;;;;5101012;27;20497;-67
2022/04/30 00:25:04;;;;;;;8.02;4.00;;;16.90;79.90;;;;;;5136903;27;20050;-66
2022/04/30 00:27:31;;;;;;;6.07;4.07;;;16.70;79.80;;;;;;5101128;27;20054;-66
2022/04/30 00:29:58;;;;;;;9.63;4.22;;;16.90;80.10;;;;;;5110186;27;20508;-63
2022/04/30 00:32:24;;;;;;;6.38;3.95;;;16.70;79.90;;;;;;5135219;27;20112;-63
2022/04/30 00:34:50;;;;;;;7.82;4.10;;;16.70;79.90;;;;;;5136084;27;20074;-63
2022/04/30 00:37:16;;;;;;;6.55;3.83;;;;;;;;;;5103110;28;20071;-63
2022/04/30 00:39:41;;;;;;;7.00;3.75;;;16.80;79.80;;;;;;5116761;27;20047;-63
2022/04/30 00:42:11;;;;;;;8.63;4.20;;;16.70;77.10;;;;;;5096948;28;20055;-63
2022/04/30 00:44:37;;;;;;;7.80;4.25;;;16.80;79.80;;;;;;5080580;28;20083;-63
2022/04/30 00:47:04;;;;;;;10.68;4.75;;;16.60;77.10;;;;;;5097633;28;20071;-62
2022/04/30 00:49:30;;;;;;;8.23;3.83;;;;;;;;;;5096934;27;20055;-63
2022/04/30 00:51:58;;;;;;;9.70;4.53;;;16.80;76.70;;;;;;5116709;27;20054;-63
2022/04/30 00:54:26;;;;;;;7.20;3.80;;;16.70;79.80;;;;;;5084639;28;20467;-63
2022/04/30 00:56:52;;;;;;;8.65;4.40;;;16.60;80.10;;;;;;5082553;28;20086;-62
2022/04/30 00:59:18;;;;;;;6.95;4.07;;;16.70;77.20;;;;;;5125700;27;20039;-63
2022/04/30 01:01:45;;;;;;;7.68;4.43;;;16.70;79.90;;;;;;5112092;27;20138;-63
2022/04/30 01:04:12;;;;;;;8.50;4.60;;;16.90;77.30;;;;;;5100165;27;20047;-63
2022/04/30 01:06:47;;;;;;;6.65;4.25;;;16.30;79.60;;;;;;5100344;27;20108;-66
2022/04/30 01:09:13;;;;;;;8.23;4.47;;;16.70;77.20;;;;;;5117077;27;20054;-66
2022/04/30 01:11:39;;;;;;;7.22;4.10;;;16.70;79.80;;;;;;5100449;28;20123;-67
2022/04/30 01:14:05;;;;;;;7.43;4.22;;;16.50;79.70;;;;;;5080344;27;20130;-66
2022/04/30 01:16:30;;;;;;;8.82;4.03;;;16.70;77.20;;;;;;5136115;27;20449;-66
2022/04/30 01:18:56;;;;;;;6.88;4.22;;;;;;;;;;5099930;27;20043;-65
2022/04/30 01:21:22;;;;;;;8.18;4.13;;;16.60;78.90;;;;;;5115957;27;20130;-69
2022/04/30 01:23:48;;;;;;;6.90;4.07;;;16.60;80.00;;;;;;5095186;28;20469;-65
2022/04/30 01:26:14;;;;;;;8.30;4.43;;;16.60;80.00;;;;;;5096289;28;20058;-67
2022/04/30 01:28:43;;;;;;;7.95;4.75;;;16.60;79.80;;;;;;5114604;27;20031;-66
2022/04/30 01:37:22;;;;;;;8.35;4.43;;;16.50;79.70;;;;;;5116307;27;20082;-66
2022/04/30 01:39:30;;;;;;;7.50;4.05;;;16.50;80.10;;;;;;5119247;27;20043;-66
2022/04/30 01:41:56;;;;;;;6.65;4.30;;;16.50;77.20;;;;;;5134335;27;20099;-66
2022/04/30 01:44:22;;;;;;;8.85;3.97;;;16.50;79.80;;;;;;5127923;27;20043;-66
2022/04/30 01:46:48;;;;;;;7.97;4.00;;;16.60;80.10;;;;;;5116529;27;20111;-66
2022/04/30 01:49:16;;;;;;;7.55;3.92;;;16.90;77.00;;;;;;5066009;27;20058;-66
2022/04/30 01:51:51;;;;;;;7.70;3.90;;;16.70;79.90;;;;;;5099838;27;20408;-66
2022/04/30 01:54:20;;;;;;;7.35;4.60;;;16.70;79.90;;;;;;5108811;28;20040;-65
2022/04/30 01:56:46;;;;;;;5.90;3.78;;;16.60;80.10;;;;;;5062303;28;20181;-66
2022/04/30 01:59:12;;;;;;;6.80;4.07;;;16.60;77.20;;;;;;5078999;28;20081;-66
2022/04/30 02:01:38;;;;;;;7.85;3.90;;;16.60;79.90;;;;;;5079210;28;20495;-66
2022/04/30 02:04:04;;;;;;;5.72;3.47;;;16.60;79.80;;;;;;5095601;28;20127;-66
2022/04/30 02:06:31;;;;;;;8.32;4.03;;;;;;;;;;5102100;27;20427;-66
2022/04/30 02:08:56;;;;;;;7.40;3.42;;;16.30;79.70;;;;;;5116906;27;20047;-65
2022/04/30 02:11:22;;;;;;;6.72;3.47;;;16.50;79.80;;;;;;5099122;28;20424;-66
2022/04/30 02:13:52;;;;;;;5.55;3.70;;;16.40;79.80;;;;;;5100845;28;20047;-66
2022/04/30 02:16:22;;;;;;;7.05;3.75;;;16.50;77.20;;;;;;5071942;28;20050;-67
2022/04/30 02:18:48;;;;;;;7.10;3.85;;;16.80;80.00;;;;;;5114520;28;20496;-66
2022/04/30 02:21:14;;;;;;;5.80;3.60;;;16.50;77.30;;;;;;5078682;28;20087;-66
2022/04/30 02:23:39;;;;;;;8.13;3.45;;;16.70;79.90;;;;;;5093630;28;20478;-65
2022/04/30 02:26:05;;;;;;;6.72;3.50;;;16.60;79.90;;;;;;5114852;28;20044;-66
2022/04/30 02:28:31;;;;;;;5.57;3.30;;;16.80;80.10;;;;;;5078560;28;20044;-66
2022/04/30 02:30:57;;;;;;;8.38;3.80;;;16.60;80.00;;;;;;5078541;28;20385;-66
2022/04/30 02:33:23;;;;;;;6.32;3.30;;;16.80;80.60;;;;;;5078994;28;20100;-66
2022/04/30 02:35:48;;;;;;;5.70;3.45;;;16.70;80.50;;;;;;5124289;28;20396;-65
2022/04/30 02:38:15;;;;;;;5.57;3.53;;;16.60;80.10;;;;;;5097903;28;20051;-65
2022/04/30 02:40:41;;;;;;;6.43;3.50;;;16.60;80.00;;;;;;5078208;28;20051;-66
2022/04/30 02:43:07;;;;;;;7.07;3.60;;;16.50;79.90;;;;;;5097107;27;20177;-66
2022/04/30 02:45:35;;;;;;;6.40;3.70;;;16.50;80.00;;;;;;5138436;27;20051;-65
2022/04/30 02:48:02;;;;;;;7.72;3.45;;;16.50;80.00;;;;;;5116760;27;20047;-66
2022/04/30 02:50:28;;;;;;;6.55;3.20;;;16.60;80.10;;;;;;5119750;27;20216;-65
2022/04/30 02:52:55;;;;;;;5.70;3.60;;;16.60;77.50;;;;;;5107826;28;20040;-67
2022/04/30 02:55:23;;;;;;;5.72;3.25;;;16.60;80.10;;;;;;5099460;28;20100;-65
2022/04/30 03:00:40;;;;;;;6.50;3.20;;;16.40;80.00;;;;;;5090936;27;20502;-66
2022/04/30 03:03:07;;;;;;;7.07;3.03;;;16.50;77.40;;;;;;5137980;27;20046;-65
2022/04/30 03:05:34;;;;;;;8.07;3.55;;;;;;;;;;5102971;27;20494;-66
2022/04/30 03:08:00;;;;;;;7.90;3.70;;;;;;;;;;5098662;28;20123;-69
2022/04/30 03:10:26;;;;;;;6.25;3.72;;;16.60;80.00;;;;;;5121772;27;20092;-65
2022/04/30 03:12:52;;;;;;;5.78;3.50;;;16.50;80.00;;;;;;5110867;28;20048;-67
2022/04/30 03:15:21;;;;;;;6.72;3.20;;;16.70;80.20;;;;;;5082003;28;20040;-67
2022/04/30 03:23:15;;;;;;;6.03;3.20;;;16.70;80.10;;;;;;5090251;27;20492;-66
2022/04/30 03:25:41;;;;;;;4.95;3.10;;;16.50;80.10;;;;;;5117337;27;20050;-65
2022/04/30 03:28:07;;;;;;;5.55;2.90;;;16.60;80.10;;;;;;5116743;28;20096;-66
2022/04/30 03:30:32;;;;;;;6.07;2.97;;;16.50;80.00;;;;;;5099916;28;20075;-66
2022/04/30 03:32:58;;;;;;;8.43;3.45;;;16.60;80.20;;;;;;5117051;28;20043;-66
2022/04/30 03:35:25;;;;;;;5.78;3.17;;;16.30;77.30;;;;;;5110342;27;20054;-66
2022/04/30 03:37:50;;;;;;;4.93;2.83;;;16.60;77.60;;;;;;5119492;27;20043;-66
2022/04/30 03:40:16;;;;;;;5.65;2.90;;;16.50;80.00;;;;;;5135399;27;20043;-65
2022/04/30 03:42:42;;;;;;;7.03;3.13;;;16.40;80.10;;;;;;5133491;27;20500;-66
2022/04/30 03:45:08;;;;;;;6.70;3.35;;;16.50;80.10;;;;;;5098315;28;20118;-66
2022/04/30 03:47:34;;;;;;;7.32;3.13;;;16.70;80.30;;;;;;5098288;28;20043;-66
2022/04/30 03:49:59;;;;;;;5.55;3.17;;;16.50;77.60;;;;;;5098069;28;20035;-66
2022/04/30 03:52:25;;;;;;;6.28;3.20;;;16.60;80.20;;;;;;5088199;28;20077;-66
2022/04/30 03:54:51;;;;;;;6.13;3.10;;;16.50;80.10;;;;;;5117324;27;20412;-66
2022/04/30 03:57:17;;;;;;;6.25;3.17;;;16.50;80.20;;;;;;5098444;28;20043;-65
2022/04/30 03:59:42;;;;;;;5.72;3.30;;;16.40;80.20;;;;;;5117481;27;20043;-66
2022/04/30 04:02:08;;;;;;;5.07;2.78;;;16.40;77.50;;;;;;5113334;27;20050;-66
2022/04/30 04:04:34;;;;;;;5.95;3.00;;;16.70;80.30;;;;;;5098200;28;20127;-66
2022/04/30 04:07:00;;;;;;;6.55;3.00;;;;;;;;;;5116470;28;20437;-65
2022/04/30 04:09:26;;;;;;;4.47;2.80;;;16.50;80.20;;;;;;5116072;28;20473;-66
2022/04/30 04:11:51;;;;;;;6.40;2.88;;;16.60;80.20;;;;;;5116144;28;20069;-66
2022/04/30 04:19:46;;;;;;;6.18;3.10;;;16.40;80.10;;;;;;5114357;27;20219;-63
2022/04/30 04:22:12;;;;;;;5.75;2.90;;;16.40;77.50;;;;;;5117896;27;20042;-63
2022/04/30 04:27:22;;;;;;;6.13;2.97;;;16.50;80.20;;;;;;5136630;27;20058;-64
2022/04/30 04:29:47;;;;;;;6.00;3.00;;;16.40;80.10;;;;;;5135037;27;20047;-63
2022/04/30 04:32:16;;;;;;;6.28;3.03;;;16.40;77.10;;;;;;5118370;27;20057;-62
2022/04/30 04:34:42;;;;;;;4.07;2.55;;;16.40;80.30;;;;;;5093812;28;20051;-63
2022/04/30 04:37:08;;;;;;;5.15;2.75;;;16.80;80.30;;;;;;5116346;28;20043;-63
2022/04/30 04:39:33;;;;;;;4.90;2.80;;;16.60;80.10;;;;;;5115265;28;20043;-64
2022/04/30 04:41:59;;;;;;;6.07;2.92;;;16.50;80.00;;;;;;5115363;28;20051;-63
2022/04/30 04:44:25;;;;;;;6.47;3.10;;;16.40;80.00;;;;;;5115981;27;20074;-62
2022/04/30 04:46:50;;;;;;;6.57;2.88;;;16.30;77.20;;;;;;5135741;27;20082;-64
2022/04/30 04:49:16;;;;;;;6.78;2.92;;;16.70;80.10;;;;;;5100613;27;20036;-63
2022/04/30 04:51:42;;;;;;;4.55;2.60;;;16.60;80.20;;;;;;5125362;27;20047;-63
2022/04/30 04:54:07;;;;;;;6.65;3.00;;;16.60;77.30;;;;;;5080168;28;20054;-63
2022/04/30 04:56:33;;;;;;;6.50;2.90;;;16.30;79.80;;;;;;5098572;28;20396;-66
2022/04/30 04:59:00;;;;;;;6.50;2.63;;;16.60;77.30;;;;;;5070440;28;20543;-66
2022/04/30 05:01:26;;;;;;;7.78;2.85;;;16.60;77.30;;;;;;5096396;27;20126;-69
2022/04/30 05:03:51;;;;;;;5.05;2.70;;;16.50;77.20;;;;;;5096494;28;20075;-66
2022/04/30 05:06:17;;;;;;;7.90;3.30;;;16.50;79.70;;;;;;5101019;27;20420;-66
2022/04/30 05:08:43;;;;;;;4.55;2.60;;;16.80;79.80;;;;;;5089859;28;20135;-65
2022/04/30 05:11:10;;;;;;;4.80;2.88;;;16.90;79.80;;;;;;5115273;28;20059;-65
2022/04/30 05:13:36;;;;;;;5.22;2.65;;;;;;;;;;5114926;28;20462;-65
2022/04/30 05:16:02;;;;;;;5.57;3.28;;;16.70;76.90;;;;;;5096429;28;20052;-65
2022/04/30 05:18:27;;;;;;;6.60;2.80;;;16.90;79.70;;;;;;5110610;28;20039;-66
2022/04/30 05:20:53;;;;;;;4.82;2.60;;;16.70;79.60;;;;;;5114214;27;20047;-66
2022/04/30 05:23:19;;;;;;;4.90;2.67;;;16.70;76.70;;;;;;5135114;27;20043;-71
2022/04/30 05:25:45;;;;;;;6.03;2.95;;;16.90;79.50;;;;;;5124501;27;20159;-68
2022/04/30 05:28:11;;;;;;;5.03;2.90;;;;;;;;;;5097789;28;20043;-69
2022/04/30 05:30:37;;;;;;;5.85;2.83;;;16.80;79.60;;;;;;5096444;28;20049;-68
2022/04/30 05:33:03;;;;;;;5.07;3.00;;;17.00;79.50;;;;;;5096793;28;20050;-68
2022/04/30 05:35:29;;;;;;;5.38;2.95;;;17.10;79.40;;;;;;5101322;27;20043;-68
2022/04/30 05:37:55;;;;;;;6.20;3.20;;;17.10;79.30;;;;;;5097047;27;20050;-68
2022/04/30 05:40:21;;;;;;;5.30;3.00;;;16.90;76.60;;;;;;5096354;28;20055;-68
2022/04/30 05:42:47;;;;;;;6.22;3.25;;;16.90;76.50;;;;;;5090515;27;20385;-68
2022/04/30 05:45:13;;;;;;;6.18;3.10;;;17.00;79.20;;;;;;5099536;27;20138;-68
2022/04/30 05:47:38;;;;;;;7.70;3.35;;;17.20;79.40;;;;;;5116622;27;20054;-68
2022/04/30 05:50:05;;;;;;;5.50;3.40;;;17.10;79.20;;;;;;5119414;27;20099;-68
2022/04/30 05:52:33;;;;;;;5.22;2.95;;;17.10;79.20;;;;;;5096166;28;20091;-68
2022/04/30 05:55:02;;;;;;;5.88;2.72;;;17.10;76.50;;;;;;5114436;28;20040;-67
2022/04/30 05:57:28;;;;;;;6.88;3.42;;;17.20;79.20;;;;;;5096449;28;20048;-68
2022/04/30 05:59:55;;;;;;;7.05;3.65;;;17.30;79.20;;;;;;5104344;27;20192;-64
2022/04/30 06:02:21;;;;;;;6.88;3.17;;;17.30;79.30;;;;;;5090115;28;20040;-68
2022/04/30 06:04:47;;;;;;;5.47;3.03;;;17.20;79.30;;;;;;5095809;28;20044;-67
2022/04/30 06:07:13;;;;;;;5.95;3.25;;;17.50;76.60;;;;;;5100415;27;20039;-66
2022/04/30 06:09:38;;;;;;;4.82;3.10;;;17.20;79.10;;;;;;5116029;27;20061;-67
2022/04/30 06:12:05;;;;;;;6.50;3.33;;;17.30;79.10;;;;;;5131274;27;20043;-67
2022/04/30 06:14:31;;;;;;;8.27;3.67;;;17.20;79.00;;;;;;5114105;28;20051;-68
2022/04/30 06:17:00;;;;;;;6.65;3.20;;;;;;;;;;5124057;27;20104;-68
2022/04/30 06:19:26;;;;;;;5.13;3.10;;;17.30;79.30;;;;;;5095865;28;20047;-66
2022/04/30 06:21:53;;;;;;;6.70;2.92;;;17.10;79.50;;;;;;5113444;28;20051;-66
2022/04/30 06:24:19;;;;;;;6.72;3.72;;;17.40;79.60;;;;;;5115231;28;20517;-66
2022/04/30 06:26:45;;;;;;;5.88;3.22;;;17.00;79.40;;;;;;5114021;28;20391;-66
2022/04/30 06:29:13;;;;;;;5.53;3.78;;;17.30;77.20;;;;;;5062374;28;20040;-67
2022/04/30 06:31:40;;;;;;;5.25;2.88;;;17.60;80.40;;;;;;5095806;28;20370;-67
2022/04/30 06:34:07;;;;;;;6.25;3.10;;;17.40;79.90;;;;;;5118117;28;20393;-66
2022/04/30 06:36:33;;;;;;;6.05;3.65;;;17.50;80.10;;;;;;5114257;28;20062;-66
2022/04/30 06:39:00;;;;;;;6.75;3.30;;;17.50;80.00;;;;;;5078553;28;20054;-68
2022/04/30 06:41:27;;;;;;;7.93;3.72;;;17.50;80.10;;;;;;5094846;28;20059;-66
2022/04/30 06:43:53;;;;;;;5.63;3.50;;;17.50;77.20;;;;;;5109728;28;20404;-66
2022/04/30 06:46:19;;;;;;;5.47;3.28;;;17.50;80.40;;;;;;5113989;28;20492;-66
2022/04/30 06:48:46;;;;;;;7.57;3.47;;;17.80;80.40;;;;;;5095318;28;20093;-67
2022/04/30 06:51:13;;;;;;;7.43;3.55;;;17.20;79.30;;;;;;5107367;28;20054;-66
2022/04/30 06:59:12;;;;;;;7.68;3.67;;;17.80;80.40;;;;;;5114829;28;20083;-67
2022/04/30 07:04:17;;;;;;;9.15;3.33;;;17.60;77.50;;;;;;5097740;28;20423;-65
2022/04/30 07:06:45;;;;;;;6.80;3.15;;;17.80;80.20;;;;;;5114512;28;20397;-67
2022/04/30 07:09:13;;;;;;;7.47;3.30;;;17.70;80.40;;;;;;5091518;28;20047;-63
2022/04/30 07:11:39;;;;;;;8.35;3.60;;;17.80;80.10;;;;;;5106788;28;20090;-63
2022/04/30 07:14:06;;;;;;;10.52;3.80;;;17.80;80.00;;;;;;5087173;28;20430;-63
2022/04/30 07:16:34;;;;;;;6.40;3.60;;;17.80;76.20;;;;;;5104830;28;20058;-64
2022/04/30 07:19:03;;;;;;;7.07;3.30;;;;;;;;;;5121457;28;20160;-69
2022/04/30 07:21:31;;;;;;;5.82;3.50;;;18.10;79.70;;;;;;5104027;28;20148;-63
2022/04/30 07:23:58;;;;;;;7.00;3.78;;;18.10;75.70;;;;;;5104948;28;20243;-64
2022/04/30 07:26:24;;;;;;;9.00;3.75;;;18.10;79.20;;;;;;5098274;28;20135;-68
2022/04/30 07:28:51;;;;;;;5.15;3.25;;;18.60;79.10;;;;;;5132924;27;20035;-63
2022/04/30 07:31:21;;;;;;;7.38;3.40;;;18.70;78.80;;;;;;5092921;27;20181;-67
2022/04/30 07:33:51;;;;;;;7.03;3.35;;;18.80;74.70;;;;;;5108473;27;20035;-65
2022/04/30 07:36:18;;;;;;;7.32;3.28;;;19.00;74.70;;;;;;5102408;27;20040;-64
2022/04/30 07:38:44;;;;;;;8.18;3.10;;;19.20;75.30;;;;;;5092649;27;20051;-63
2022/04/30 07:41:11;;;;;;;6.80;3.53;;;19.30;78.00;;;;;;5129412;27;20061;-69
2022/04/30 07:43:37;;;;;;;6.47;2.90;;;19.40;78.00;;;;;;5130232;27;20401;-64
2022/04/30 07:46:03;;;;;;;6.57;3.45;;;19.10;77.70;;;;;;5096717;27;20132;-68
2022/04/30 07:48:29;;;;;;;6.03;2.92;;;19.40;77.80;;;;;;5106094;27;20043;-63
2022/04/30 07:50:57;;;;;;;6.63;3.35;;;;;;;;;;5119242;27;20073;-65
2022/04/30 07:53:25;;;;;;;7.30;3.53;;;19.30;74.50;;;;;;5130224;27;20050;-65
2022/04/30 07:55:54;;;;;;;5.50;2.90;;;19.00;77.40;;;;;;5130406;27;20504;-63
2022/04/30 07:58:20;;;;;;;5.60;3.28;;;19.40;77.60;;;;;;5077499;27;20043;-63
2022/04/30 08:00:47;;;;;;;5.63;3.17;;;;;;;;;;5093596;27;20051;-64
2022/04/30 08:03:13;;;;;;;6.80;3.10;;;19.10;77.50;;;;;;5133323;27;20047;-64
2022/04/30 08:05:39;;;;;;;5.35;3.17;;;19.20;77.30;;;;;;5134011;27;20070;-65
2022/04/30 08:08:08;;;;;;;6.07;3.28;;;19.20;77.50;;;;;;5128190;27;20035;-65
2022/04/30 08:10:34;;;;;;;7.05;3.17;;;19.30;77.60;;;;;;5113370;27;20043;-73
2022/04/30 08:13:01;;;;;;;7.07;3.30;;;19.20;77.60;;;;;;5134148;27;20050;-70
2022/04/30 08:15:27;;;;;;;8.35;4.30;;;;;;;;;;5114149;27;20656;-66
2022/04/30 08:17:53;;;;;;;7.78;4.10;;;19.40;78.10;;;;;;5112717;27;20035;-66
2022/04/30 08:20:19;;;;;;;7.38;3.75;;;19.20;76.80;;;;;;5115680;27;20118;-63
2022/04/30 08:22:45;;;;;;;6.90;3.65;;;18.90;78.20;;;;;;5113779;27;20043;-65
2022/04/30 08:25:11;;;;;;;9.32;3.83;;;19.10;78.30;;;;;;5115653;27;20043;-67
2022/04/30 08:27:37;;;;;;;7.20;3.65;;;19.00;78.10;;;;;;5113343;27;20057;-65
2022/04/30 08:30:03;;;;;;;6.68;3.65;;;19.10;78.00;;;;;;5113417;27;20046;-66
2022/04/30 08:32:29;;;;;;;9.57;3.60;;;;;;;;;;5078797;27;20050;-71
2022/04/30 08:34:55;;;;;;;6.72;3.30;;;19.10;78.30;;;;;;5131960;27;20038;-69
2022/04/30 08:37:21;;;;;;;6.78;3.08;;;19.10;78.40;;;;;;5134874;27;20039;-64
2022/04/30 08:39:48;;;;;;;11.15;3.90;;;19.20;78.60;;;;;;5120790;27;20059;-63
2022/04/30 08:42:16;;;;;;;6.75;3.17;;;18.90;78.30;;;;;;5081220;27;20050;-65
2022/04/30 08:44:43;;;;;;;7.53;3.55;;;19.30;78.50;;;;;;5113741;27;20646;-65
2022/04/30 08:47:11;;;;;;;7.70;3.22;;;19.30;78.50;;;;;;5129124;27;20035;-62
2022/04/30 08:49:42;;;;;;;10.82;3.22;;;19.30;78.40;;;;;;5115081;27;20050;-63
2022/04/30 08:52:08;;;;;;;13.43;3.42;;;19.20;78.40;;;;;;5114269;27;20035;-65
2022/04/30 08:54:35;;;;;;;6.65;3.20;;;19.20;78.30;;;;;;5134225;27;20388;-64
2022/04/30 08:57:01;;;;;;;12.40;3.42;;;18.70;77.90;;;;;;5130395;27;20035;-65
2022/04/30 08:59:28;;;;;;;8.40;3.40;;;19.10;78.10;;;;;;5134321;27;20527;-65
2022/04/30 09:01:57;;;;;;;6.85;3.42;;;19.00;78.10;;;;;;5116655;27;20051;-65
2022/04/30 09:04:27;;;;;;;6.38;3.30;;;19.00;78.00;;;;;;5134524;27;20043;-63
2022/04/30 09:06:55;;;;;;;7.53;3.08;;;19.20;78.00;;;;;;5131743;27;20044;-67
2022/04/30 09:09:28;;;;;;;8.48;3.10;;;19.10;77.90;;;;;;5098984;27;20404;-67
2022/04/30 09:12:06;;;;;;;10.40;3.20;;;19.30;74.90;;;;;;5134858;27;20121;-64
2022/04/30 09:14:32;;;;;;;6.10;3.28;;;19.20;78.10;;;;;;5115528;27;20047;-63
2022/04/30 09:17:03;;;;;;;9.35;3.25;;;19.10;78.30;;;;;;5134951;27;20035;-63
2022/04/30 09:19:29;;;;;;;7.43;3.05;;;19.20;78.30;;;;;;5124594;27;20082;-63
2022/04/30 09:21:58;;;;;;;7.97;3.22;;;19.20;78.60;;;;;;5126450;27;20047;-67
2022/04/30 09:24:25;;;;;;;6.90;3.13;;;;;;;;;;5119422;27;20128;-69
2022/04/30 09:26:52;;;;;;;7.88;3.00;;;19.20;78.30;;;;;;5121132;27;20040;-67
2022/04/30 09:29:23;;;;;;;10.00;3.13;;;18.90;78.10;;;;;;5106084;27;20039;-68
2022/04/30 09:31:51;;;;;;;8.13;3.33;;;19.40;75.30;;;;;;5123321;27;20047;-70
2022/04/30 09:39:50;;;;;;;6.57;2.72;;;19.50;78.40;;;;;;5104550;27;20040;-70
2022/04/30 09:42:17;;;;;;;6.38;2.90;;;19.20;78.10;;;;;;5103604;28;20174;-69
2022/04/30 09:44:43;;;;;;;7.07;3.25;;;19.60;75.60;;;;;;5088339;27;20442;-67
2022/04/30 09:47:09;;;;;;;7.95;3.10;;;19.50;78.20;;;;;;5083155;28;20510;-70
2022/04/30 09:55:07;;;;;;;5.30;2.60;;;19.90;78.30;;;;;;5090926;28;20462;-66
2022/04/30 09:57:36;;;;;;;6.53;3.08;;;19.80;78.20;;;;;;5122176;27;20371;-65
2022/04/30 10:00:03;;;;;;;5.78;2.85;;;19.70;78.20;;;;;;5087566;28;20071;-65
2022/04/30 10:02:31;;;;;;;5.55;3.08;;;19.70;76.30;;;;;;5105788;27;20396;-67
2022/04/30 10:04:57;;;;;;;13.77;3.53;;;19.60;77.90;;;;;;5091219;27;20059;-64
2022/04/30 10:07:29;;;;;;;13.80;3.60;;;19.80;75.00;;;;;;5081858;28;20047;-64
2022/04/30 10:09:55;;;;;;;10.35;3.72;;;;;;;;;;5105848;28;20880;-62
2022/04/30 10:12:32;;;;;;;11.05;3.30;;;19.70;78.30;;;;;;5112742;27;20042;-63
2022/04/30 10:15:08;;;;;;;7.28;2.95;;;19.70;78.20;;;;;;5093422;28;20094;-68
2022/04/30 10:17:36;;;;;;;9.77;3.47;;;19.70;76.10;;;;;;5108286;28;20392;-68
2022/04/30 10:20:19;;;;;;;8.93;3.20;;;19.60;78.30;;;;;;5093175;28;20051;-63
2022/04/30 10:22:52;;;;;;;7.30;3.20;;;19.50;73.60;;;;;;5112688;28;20047;-63
2022/04/30 10:25:36;;;;;;;15.70;3.83;;;19.70;78.20;;;;;;5112393;28;20039;-67
2022/04/30 10:28:15;;;;;;;6.70;2.95;;;19.50;78.10;;;;;;5113298;28;20035;-69
2022/04/30 10:31:04;;;;;;;6.72;3.00;;;19.50;74.60;;;;;;5090312;28;20104;-63
2022/04/30 10:33:37;;;;;;;8.68;3.30;;;19.50;75.20;;;;;;5038097;28;20403;-63
2022/04/30 10:36:03;;;;;;;;;;;19.60;75.60;;;;;;5051903;28;20056;-62
2022/04/30 10:38:31;;;;;;;7.90;2.85;;;19.50;78.10;;;;;;5066962;28;19990;-67
2022/04/30 10:40:58;;;;;;;6.85;3.33;;;19.50;78.10;;;;;;5066732;28;20071;-62
2022/04/30 10:43:42;;;;;;;8.90;3.25;;;;;;;;;;5067908;28;20128;-65
2022/04/30 10:46:18;;;;;;;7.93;3.10;;;19.50;78.10;;;;;;5068150;28;20048;-62
2022/04/30 10:48:45;;;;;;;8.23;3.38;;;20.10;74.50;;;;;;5075314;28;20045;-62
2022/04/30 10:51:12;;;;;;;7.53;3.08;;;19.50;78.00;;;;;;5065605;28;20045;-66
2022/04/30 10:53:45;;;;;;;6.30;2.80;;;19.60;78.10;;;;;;5068868;28;20429;-66
2022/04/30 10:56:13;;;;;;;4.78;2.75;;;19.60;78.10;;;;;;5064940;28;20464;-62
2022/04/30 10:58:41;;;;;;;6.32;2.75;;;19.50;78.00;;;;;;5074666;28;20049;-62
2022/04/30 11:01:17;;;;;;;8.65;2.80;;;19.50;78.10;;;;;;5052314;28;20442;-66
2022/04/30 11:03:50;;;;;;;6.40;3.20;;;19.50;78.10;;;;;;5069032;28;20044;-62
2022/04/30 11:06:25;;;;;;;5.45;2.60;;;19.20;77.70;;;;;;5067271;28;20111;-62
2022/04/30 11:09:04;;;;;;;5.45;2.78;;;19.40;77.90;;;;;;5071341;28;20115;-62
2022/04/30 11:11:31;;;;;;;5.78;2.50;;;19.60;75.80;;;;;;5129288;27;20039;-64
2022/04/30 11:14:19;;;;;;;6.80;2.90;;;19.40;73.10;;;;;;5117123;27;20049;-68
2022/04/30 11:16:49;;;;;;;7.68;3.17;;;19.60;77.80;;;;;;5114410;27;20147;-62
2022/04/30 11:19:18;;;;;;;6.35;3.00;;;19.50;77.30;;;;;;5095942;27;20043;-68
2022/04/30 11:21:51;;;;;;;5.90;3.10;;;19.70;77.80;;;;;;5090086;27;20040;-69
2022/04/30 11:24:31;;;;;;;4.43;2.58;;;19.40;77.60;;;;;;5085734;27;20047;-65
2022/04/30 11:27:04;;;;;;;4.70;2.70;;;19.50;77.70;;;;;;5099452;27;20043;-66
2022/04/30 11:29:31;;;;;;;5.03;2.63;;;;;;;;;;5109734;27;20582;-67
2022/04/30 11:31:58;;;;;;;9.88;3.30;;;19.70;77.80;;;;;;5104273;27;20560;-64
2022/04/30 11:34:24;;;;;;;5.88;2.95;;;;;;;;;;5073221;27;20039;-63
2022/04/30 11:36:53;;;;;;;11.50;3.10;;;19.40;74.60;;;;;;5125225;27;20042;-66
2022/04/30 11:39:20;;;;;;;12.80;3.60;;;19.60;77.70;;;;;;5105907;27;20054;-62
2022/04/30 11:41:52;;;;;;;14.00;3.63;;;19.80;77.90;;;;;;5125958;27;20047;-64
2022/04/30 11:44:25;;;;;;;14.45;3.63;;;19.50;77.80;;;;;;5130486;27;20173;-64
2022/04/30 11:46:52;;;;;;;8.32;3.33;;;19.60;77.80;;;;;;5099264;28;20556;-65
2022/04/30 11:49:37;;;;;;;9.32;3.50;;;19.70;73.00;;;;;;5109509;27;20063;-66
2022/04/30 11:52:03;;;;;;;7.60;3.58;;;19.50;77.30;;;;;;5119090;27;20089;-63
2022/04/30 11:54:30;;;;;;;11.13;3.90;;;19.70;77.30;;;;;;5090689;27;20111;-66
2022/04/30 11:57:00;;;;;;;7.97;3.38;;;19.40;76.70;;;;;;5088348;27;20035;-65
2022/04/30 11:59:34;;;;;;;7.55;3.30;;;19.60;77.10;;;;;;5126098;27;20485;-68
2022/04/30 12:02:05;;;;;;;6.70;3.20;;;19.70;77.20;;;;;;5125616;27;20172;-69
2022/04/30 12:04:35;;;;;;;6.55;3.33;;;19.70;77.10;;;;;;5120470;27;20039;-67
2022/04/30 12:07:05;;;;;;;6.30;3.10;;;19.60;77.00;;;;;;5132083;27;20172;-69
2022/04/30 12:09:33;;;;;;;9.30;3.65;;;19.50;77.00;;;;;;5118231;27;20031;-63
2022/04/30 12:12:00;;;;;;;6.20;3.08;;;19.50;76.90;;;;;;5122608;27;20118;-65
2022/04/30 12:14:27;;;;;;;4.18;2.67;;;19.60;77.00;;;;;;5094258;27;20174;-67
2022/04/30 12:16:54;;;;;;;4.68;2.72;;;19.60;77.00;;;;;;5108060;27;20035;-68
2022/04/30 12:25:17;;;;;;;9.45;3.22;;;19.60;72.30;;;;;;5104872;27;20055;-63
2022/04/30 12:28:06;;;;;;;6.28;3.47;;;19.60;76.80;;;;;;5085711;27;20082;-64
2022/04/30 12:30:33;;;;;;;6.45;3.25;;;19.60;76.80;;;;;;5109401;27;20043;-66
2022/04/30 12:33:05;;;;;;;6.68;3.75;;;19.50;76.80;;;;;;5121166;27;20050;-63
2022/04/30 12:35:40;;;;;;;7.00;3.50;;;19.70;76.80;;;;;;5123908;27;20039;-66
2022/04/30 12:38:14;;;;;;;6.20;3.25;;;19.60;76.90;;;;;;5099981;27;20047;-66
2022/04/30 12:40:42;;;;;;;5.70;3.08;;;19.60;77.00;;;;;;5124004;27;20051;-64
2022/04/30 12:43:09;;;;;;;6.70;3.30;;;19.60;77.10;;;;;;5103862;28;20127;-65
2022/04/30 12:45:37;;;;;;;7.30;3.38;;;19.70;77.10;;;;;;5126181;27;20508;-63
2022/04/30 12:48:04;;;;;;;5.10;3.20;;;19.30;76.80;;;;;;5109702;27;20046;-64
2022/04/30 12:50:32;;;;;;;6.88;3.38;;;19.40;77.00;;;;;;5112724;27;20035;-66
2022/04/30 12:52:59;;;;;;;6.80;3.30;;;19.20;76.80;;;;;;5123514;27;20039;-63
2022/04/30 12:55:25;;;;;;;5.32;3.72;;;19.40;77.10;;;;;;5084423;28;20047;-63
2022/04/30 12:57:51;;;;;;;8.20;3.53;;;19.60;77.10;;;;;;5115415;28;20092;-65
2022/04/30 13:00:18;;;;;;;6.72;3.17;;;;;;;;;;5114102;27;20435;-64
2022/04/30 13:02:44;;;;;;;5.40;3.00;;;19.40;76.60;;;;;;5107250;27;20047;-70
2022/04/30 13:05:11;;;;;;;6.68;3.13;;;19.60;76.70;;;;;;5114668;27;20148;-69
2022/04/30 13:07:37;;;;;;;13.85;3.75;;;;;;;;;;5094837;27;20043;-65
2022/04/30 13:13:31;;;;;;;11.55;3.40;;;19.70;76.80;;;;;;5097261;27;20079;-67
2022/04/30 13:15:44;;;;;;;7.53;3.60;;;19.70;77.00;;;;;;5081896;27;20040;-67
2022/04/30 13:18:11;;;;;;;11.52;3.30;;;;;;;;;;5114391;27;20051;-67
2022/04/30 13:20:37;;;;;;;9.15;3.67;;;;;;;;;;5111522;27;20038;-67
2022/04/30 13:23:03;;;;;;;6.90;3.10;;;19.70;76.80;;;;;;5133118;27;20035;-66
2022/04/30 13:25:29;;;;;;;8.20;3.20;;;19.90;76.90;;;;;;5097742;27;20087;-63
2022/04/30 13:27:56;;;;;;;4.85;2.47;;;20.00;77.00;;;;;;5087813;27;20050;-70
2022/04/30 13:30:22;;;;;;;5.93;2.97;;;19.90;76.90;;;;;;5120458;27;20047;-64
2022/04/30 13:32:49;;;;;;;6.60;2.70;;;20.00;77.00;;;;;;5086058;27;20119;-63
2022/04/30 13:35:15;;;;;;;5.70;2.80;;;20.00;76.90;;;;;;5127285;27;20104;-70
2022/04/30 13:37:41;;;;;;;5.85;2.65;;;20.10;77.00;;;;;;5091888;27;20443;-69
2022/04/30 13:40:14;;;;;;;6.13;2.70;;;20.00;72.40;;;;;;5132027;27;20051;-68
2022/04/30 13:42:43;;;;;;;5.63;2.47;;;20.00;77.00;;;;;;5130974;27;20042;-64
2022/04/30 13:45:09;;;;;;;5.70;2.83;;;20.00;73.80;;;;;;5094061;27;20120;-67
2022/04/30 13:47:36;;;;;;;6.10;3.00;;;19.90;73.60;;;;;;5105136;27;20118;-71